Flight Track Log - Related Links

Times and Time Zones

All times are in EDT time to prevent confusion due to time zone crossing. See the ASH3756 flight status page for this flight to view local times or setup timezone preferences in your user account.

Time Position Orientation Groundspeed Altitude Reporting Facility
EDT Latitude Longitude Course Direction KTS MPH feet Rate Location/Type
Wed 08:10:14 PM 39.2833 -94.7333 360° North 169 194 1,800  Level Kansas City TRACON
Wed 08:10:26 PM 39.2833 -94.7333 179° South 176 203 2,000 1,200 Climbing Kansas City TRACON
Wed 08:10:59 PM 39.2569 -94.7328 179° South 178 205 2,700 1,438 Climbing Kansas City Center
Wed 08:12:02 PM 39.1950 -94.7169 169° South 233 268 4,300 1,935 Climbing Kansas City Center
Wed 08:13:03 PM 39.1125 -94.6972 169° South 266 306 6,700 2,182 Climbing Kansas City Center
Wed 08:14:03 PM 39.0897 -94.6047 108° East 291 335 8,700 2,146 Climbing Kansas City Center
Wed 08:15:06 PM 39.1303 -94.4994 64° Northeast 295 339 11,100 1,839 Climbing Kansas City Center
Wed 08:16:07 PM 39.1753 -94.4039 59° Northeast 321 369 12,500 1,488 Climbing Kansas City Center
Wed 08:17:11 PM 39.2322 -94.2822 59° Northeast 354 407 14,200 1,500 Climbing Kansas City Center
Wed 08:18:11 PM 39.2836 -94.1725 59° Northeast 372 428 15,600 1,500 Climbing Kansas City Center
Wed 08:19:15 PM 39.3467 -94.0394 58° Northeast 388 447 17,300 1,488 Climbing Kansas City Center
Wed 08:20:16 PM 39.3922 -93.9172 64° Northeast 397 457 18,700 1,525 Climbing Kansas City Center
Wed 08:21:17 PM 39.4083 -93.7561 83° East 403 464 20,400 1,452 Climbing Kansas City Center
Wed 08:22:20 PM 39.4264 -93.6308 79° East 405 466 21,700 1,355 Climbing Kansas City Center
Wed 08:23:21 PM 39.4425 -93.4897 82° East 403 464 23,200 1,500 Climbing Kansas City Center
Wed 08:24:24 PM 39.4639 -93.3208 81° East 401 461 24,800 1,268 Climbing Kansas City Center
Wed 08:25:24 PM 39.4814 -93.1769 81° East 405 466 25,800 976 Climbing Kansas City Center
Wed 08:26:27 PM 39.4989 -93.0267 81° East 420 483 26,800 976 Climbing Kansas City Center
Wed 08:27:27 PM 39.5156 -92.8756 82° East 427 491 27,800 843 Climbing Kansas City Center
Wed 08:28:28 PM 39.5331 -92.7228 82° East 431 496 28,500 624 Climbing Kansas City Center
Wed 08:29:32 PM 39.5542 -92.5344 82° East 438 504 29,100 528 Climbing Kansas City Center
Wed 08:30:33 PM 39.5725 -92.3722 82° East 448 516 29,600 629 Climbing Kansas City Center
Wed 08:31:36 PM 39.5911 -92.2069 82° East 460 529 30,400 823 Climbing Kansas City Center
Wed 08:32:37 PM 39.6089 -92.0419 82° East 466 536 31,300 992 Climbing Kansas City Center
Wed 08:33:37 PM 39.6269 -91.8806 82° East 463 533 32,400 1,065 Climbing Kansas City Center
Wed 08:34:41 PM 39.6478 -91.6894 82° East 456 525 33,500 1,008 Climbing Kansas City Center
Wed 08:35:42 PM 39.6650 -91.5314 82° East 452 520 34,500 738 Climbing Kansas City Center
Wed 08:36:43 PM 39.6808 -91.3758 82° East 445 512 35,000 246 Climbing Kansas City Center
Wed 08:37:44 PM 39.6975 -91.2000 83° East 450 518 35,000  Level Kansas City Center
Wed 08:38:48 PM 39.7144 -91.0303 83° East 464 534 35,000  Level Kansas City Center
Wed 08:39:50 PM 39.7308 -90.8636 83° East 466 536 35,000  Level Kansas City Center
Wed 08:40:52 PM 39.7475 -90.6950 83° East 467 537 35,000  Level Kansas City Center
Wed 08:41:53 PM 39.7650 -90.5114 83° East 472 543 35,000  Level Kansas City Center
Wed 08:42:53 PM 39.7797 -90.3428 83° East 472 543 35,000  Level Kansas City Center
Wed 08:43:57 PM 39.7956 -90.1736 83° East 473 544 35,000  Level Kansas City Center
Wed 08:44:57 PM 39.8103 -90.0042 83° East 474 545 35,000  Level Kansas City Center
Wed 08:46:01 PM 39.8289 -89.8011 83° East 474 545 35,000 96 Level Kansas City Center
Wed 08:47:02 PM 39.8406 -89.6322 85° East 472 543 35,200 390 Climbing Kansas City Center
Wed 08:48:04 PM 39.8406 -89.4617 90° East 473 544 35,800 541 Climbing Kansas City Center
Wed 08:49:04 PM 39.8417 -89.2897 89° East 476 548 36,300 488 Climbing Kansas City Center
Wed 08:50:07 PM 39.8417 -89.1217 90° East 472 543 36,800 339 Climbing Kansas City Center
Wed 08:51:08 PM 39.8422 -88.9528 90° East 470 541 37,000 96 Climbing Kansas City Center
Wed 08:52:12 PM 39.8431 -88.7511 90° East 467 537 37,000  Level Kansas City Center
Wed 08:53:13 PM 39.8414 -88.5828 91° East 467 537 37,000  Level Kansas City Center
Wed 08:54:15 PM 39.8428 -88.4156 89° East 464 534 37,000  Level Kansas City Center
Wed 08:55:16 PM 39.8428 -88.2481 90° East 464 534 37,000  Level Kansas City Center
Wed 08:56:16 PM 39.8408 -88.0858 91° East 465 535 37,000  Level Kansas City Center
Wed 08:57:20 PM 39.8403 -87.8836 90° East 464 534 37,000  Level Kansas City Center
Wed 08:58:22 PM 39.8378 -87.7150 91° East 464 534 37,000  Level Kansas City Center
Wed 08:59:22 PM 39.8353 -87.5458 91° East 465 535 37,000  Level Kansas City Center
Wed 09:00:23 PM 39.8325 -87.3989 91° East 463 533 37,000  Level Indianapolis Center
Wed 09:01:24 PM 39.8303 -87.2322 91° East 463 533 37,000  Level Indianapolis Center
Wed 09:02:26 PM 39.8283 -87.0319 91° East 464 534 37,000  Level Indianapolis Center
Wed 09:03:27 PM 39.8253 -86.8653 91° East 463 533 37,000  Level Indianapolis Center
Wed 09:04:29 PM 39.8219 -86.6992 91° East 461 531 37,000  Level Indianapolis Center
Wed 09:05:30 PM 39.8197 -86.5319 91° East 463 533 37,000  Level Indianapolis Center
Wed 09:06:31 PM 39.8158 -86.3611 92° East 467 537 37,000  Level Indianapolis Center
Wed 09:07:33 PM 39.8200 -86.2039 88° East 469 540 37,000  Level Indianapolis Center
Wed 09:08:34 PM 39.8261 -86.0144 88° East 467 537 37,000  Level Indianapolis Center
Wed 09:09:36 PM 39.8303 -85.8481 88° East 462 532 37,000  Level Indianapolis Center
Wed 09:10:37 PM 39.8347 -85.6814 88° East 462 532 37,000  Level Indianapolis Center
Wed 09:11:38 PM 39.8392 -85.5133 88° East 465 535 37,000  Level Indianapolis Center
Wed 09:12:40 PM 39.8425 -85.3467 88° East 463 533 37,000  Level Indianapolis Center
Wed 09:13:41 PM 39.8469 -85.1797 88° East 464 534 37,000  Level Indianapolis Center
Wed 09:14:43 PM 39.8503 -84.9808 89° East 461 531 37,000  Level Indianapolis Center
Wed 09:15:44 PM 39.8531 -84.8181 89° East 461 531 37,000  Level Indianapolis Center
Wed 09:16:45 PM 39.8558 -84.6519 89° East 459 528 37,000  Level Indianapolis Center
Wed 09:17:47 PM 39.8586 -84.4858 89° East 457 526 37,000  Level Indianapolis Center
Wed 09:18:48 PM 39.8611 -84.3192 89° East 458 527 37,000  Level Indianapolis Center
Wed 09:19:49 PM 39.8639 -84.1508 89° East 462 532 37,000  Level Indianapolis Center
Wed 09:20:51 PM 39.8656 -83.9828 89° East 463 533 37,000  Level Indianapolis Center
Wed 09:21:52 PM 39.8675 -83.8142 89° East 463 533 37,000  Level Indianapolis Center
Wed 09:22:53 PM 39.8689 -83.6447 89° East 466 536 37,000  Level Indianapolis Center
Wed 09:23:55 PM 39.8706 -83.4725 89° East 472 543 37,000  Level Indianapolis Center
Wed 09:24:56 PM 39.8586 -83.2842 95° East 480 552 37,000  Level Indianapolis Center
Wed 09:25:58 PM 39.8461 -83.1125 95° East 474 545 37,000  Level Indianapolis Center
Wed 09:26:59 PM 39.8328 -82.9386 96° East 478 550 37,000  Level Indianapolis Center
Wed 09:28:00 PM 39.8200 -82.7633 95° East 482 555 37,000  Level Indianapolis Center
Wed 09:29:02 PM 39.8047 -82.5586 95° East 486 559 37,000  Level Indianapolis Center
Wed 09:30:03 PM 39.7906 -82.3819 96° East 487 560 37,000  Level Indianapolis Center
Wed 09:31:05 PM 39.7756 -82.2039 96° East 492 566 37,000  Level Indianapolis Center
Wed 09:32:06 PM 39.7611 -82.0289 96° East 487 560 37,000  Level Indianapolis Center
Wed 09:33:07 PM 39.7456 -81.8533 97° East 486 559 37,000  Level Indianapolis Center
Wed 09:34:09 PM 39.7311 -81.6778 96° East 486 559 37,000  Level Indianapolis Center
Wed 09:35:10 PM 39.7156 -81.5025 97° East 487 560 37,000  Level Indianapolis Center
Wed 09:36:11 PM 39.6992 -81.3094 96° East 488 562 37,000  Level Indianapolis Center
Wed 09:37:13 PM 39.6817 -81.1331 97° East 491 565 37,000  Level Indianapolis Center
Wed 09:38:14 PM 39.6664 -80.9589 96° East 485 558 37,000  Level Indianapolis Center
Wed 09:39:15 PM 39.6494 -80.7819 97° East 491 565 37,000  Level Indianapolis Center
Wed 09:40:17 PM 39.6322 -80.6036 97° East 495 570 37,000  Level Indianapolis Center
Wed 09:41:18 PM 39.6136 -80.4281 98° East 493 567 37,000 -787 Level Indianapolis Center
Wed 09:42:19 PM 39.5958 -80.2497 97° East 498 573 35,400 -1,805 Descending Indianapolis Center
Wed 09:43:21 PM 39.5775 -80.0725 98° East 497 572 33,300 -2,065 Descending Indianapolis Center
Wed 09:43:52 PM 39.5694 -79.9692 96° East 486 559 32,200 -2,044 Descending Cleveland Center
Wed 09:44:52 PM 39.5519 -79.8183 99° East 471 542 30,200 -2,000 Descending Cleveland Center
Wed 09:45:52 PM 39.5214 -79.6575 104° East 465 535 28,200 -1,444 Descending Cleveland Center
Wed 09:47:05 PM 39.4872 -79.4503 102° East 457 526 27,000 -1,008 Descending Washington Center
Wed 09:48:03 PM 39.4569 -79.2900 104° East 457 526 26,000 -1,462 Descending Washington Center
Wed 09:49:04 PM 39.4297 -79.1544 105° East 451 519 24,100 -1,940 Descending Washington Center
Wed 09:50:16 PM 39.3992 -78.9836 103° East 423 487 21,700 -2,015 Descending Washington Center
Wed 09:51:15 PM 39.3739 -78.8483 104° East 403 464 19,700 -1,916 Descending Washington Center
Wed 09:52:15 PM 39.3522 -78.7183 102° East 382 440 17,900 -1,884 Descending Washington Center
Wed 09:53:16 PM 39.3283 -78.5939 104° East 366 421 15,900 -1,950 Descending Washington Center
Wed 09:54:15 PM 39.3064 -78.4725 103° East 360 414 14,000 -1,240 Descending Washington Center
Wed 09:55:17 PM 39.2819 -78.3561 105° East 347 399 13,400 -1,100 Descending Washington Center
Wed 09:56:15 PM 39.2297 -78.2603 125° Southeast 325 374 11,800 -1,613 Descending Washington Center
Wed 09:57:16 PM 39.2197 -78.1528 97° East 314 361 10,200 -1,686 Descending Washington Center
Wed 09:58:16 PM 39.2219 -78.0456 88° East 295 339 8,400 -1,736 Descending Washington Center
Wed 09:59:17 PM 39.2258 -77.9467 87° East 290 334 6,700 -1,714 Descending Washington Center
Wed 10:00:15 PM 39.2278 -77.8450 89° East 285 328 5,000 -1,714 Descending Washington Center
Wed 10:01:16 PM 39.2278 -77.7406 90° East 279 321 3,300 -934 Descending Washington Center
Wed 10:02:17 PM 39.1936 -77.6617 119° Southeast 247 284 3,100 -182 Descending Washington Center
Wed 10:02:55 PM 39.1667 -77.6167 128° Southeast 257 296 3,000 -245 Descending Potomac TRACON
Wed 10:03:55 PM 39.1167 -77.5500 134° Southeast 236 272 2,700 -397 Descending Potomac TRACON
Wed 10:04:56 PM 39.0833 -77.5000 131° Southeast 179 206 2,200 -595 Descending Potomac TRACON
Wed 10:05:56 PM 39.0500 -77.4667 142° Southeast 144 166 1,500 -500 Descending Potomac TRACON
Wed 10:06:56 PM 39.0167 -77.4667 180° South 144 166 1,200 -300 Descending Potomac TRACON
Wed 10:08:00 PM 38.9474 -77.4599 165° South  Level Estimated
Wed 10:15:00 PM 38.9474 -77.4599 165° South  Level Estimated
Wed 10:16:00 PM 38.9474 -77.4599 165° South  Level Estimated
Wed 10:17:00 PM 38.9474 -77.4599 165° South  Level Estimated
Wed 10:18:00 PM 38.9474 -77.4599 165° South  Level Estimated
Wed 10:19:00 PM 38.9474 -77.4599 165° South  Level Estimated

Login

Don't have an account? Register now (free) for customized features, flight alerts, and more!